createdAt,value
2018-09-19T00:00:47.397Z,57.60
2018-09-19T00:03:21.779Z,57.60
2018-09-19T00:05:56.077Z,57.60
2018-09-19T00:08:30.299Z,57.70
2018-09-19T00:11:04.641Z,57.70
2018-09-19T00:13:38.864Z,57.60
2018-09-19T00:16:13.151Z,57.60
2018-09-19T00:18:47.484Z,57.70
2018-09-19T00:21:21.752Z,57.80
2018-09-19T00:23:56.136Z,57.70
2018-09-19T00:26:30.435Z,57.80
2018-09-19T00:29:04.684Z,57.90
2018-09-19T00:31:38.848Z,57.90
2018-09-19T00:34:13.132Z,58.00
2018-09-19T00:36:47.399Z,57.90
2018-09-19T00:39:21.608Z,58.00
2018-09-19T00:41:56.169Z,58.00
2018-09-19T00:44:30.339Z,58.00
2018-09-19T00:47:04.816Z,57.50
2018-09-19T00:49:39.069Z,58.00
2018-09-19T00:52:13.407Z,57.60
2018-09-19T00:54:47.779Z,58.10
2018-09-19T00:57:22.218Z,58.10
2018-09-19T00:59:56.435Z,58.10
2018-09-19T01:02:30.770Z,58.10
2018-09-19T01:05:05.327Z,58.10
2018-09-19T01:07:39.526Z,58.10
2018-09-19T01:10:13.828Z,58.20
2018-09-19T01:12:48.197Z,58.20
2018-09-19T01:15:22.600Z,58.20
2018-09-19T01:17:56.828Z,58.40
2018-09-19T01:20:31.244Z,58.50
2018-09-19T01:23:05.632Z,58.50
2018-09-19T01:25:39.954Z,58.50
2018-09-19T01:28:14.261Z,58.40
2018-09-19T01:30:48.628Z,58.40
2018-09-19T01:33:22.956Z,58.50
2018-09-19T01:35:57.265Z,58.60
2018-09-19T01:38:31.601Z,58.50
2018-09-19T01:41:06.180Z,58.50
2018-09-19T01:43:40.427Z,58.80
2018-09-19T01:46:14.799Z,58.50
2018-09-19T01:48:49.042Z,59.10
2018-09-19T01:51:23.419Z,59.40
2018-09-19T01:53:58.663Z,59.20
2018-09-19T01:56:33.038Z,59.10
2018-09-19T01:59:07.335Z,59.10
2018-09-19T02:01:41.532Z,59.00
2018-09-19T02:04:15.847Z,59.10
2018-09-19T02:06:50.192Z,59.10
2018-09-19T02:09:24.379Z,59.00
2018-09-19T02:11:58.567Z,59.20
2018-09-19T02:14:32.855Z,59.20
2018-09-19T02:17:07.004Z,59.20
2018-09-19T02:19:41.340Z,59.40
2018-09-19T02:22:15.725Z,59.40
2018-09-19T02:24:49.945Z,59.30
2018-09-19T02:27:24.324Z,59.30
2018-09-19T02:29:58.568Z,59.20
2018-09-19T02:32:32.937Z,59.20
2018-09-19T02:35:07.245Z,59.20
2018-09-19T02:37:41.596Z,59.10
2018-09-19T02:40:16.131Z,59.20
2018-09-19T02:42:50.493Z,59.20
2018-09-19T02:45:24.848Z,59.20
2018-09-19T02:47:59.152Z,59.30
2018-09-19T02:50:33.487Z,59.30
2018-09-19T02:53:07.734Z,59.30
2018-09-19T02:55:42.102Z,59.40
2018-09-19T02:58:16.419Z,59.40
2018-09-19T03:00:50.733Z,59.50
2018-09-19T03:03:24.991Z,59.50
2018-09-19T03:05:59.144Z,59.50
2018-09-19T03:08:33.611Z,59.60
2018-09-19T03:11:07.868Z,59.60
2018-09-19T03:13:42.067Z,59.60
2018-09-19T03:16:16.405Z,59.90
2018-09-19T03:18:50.704Z,59.90
2018-09-19T03:21:24.997Z,60.10
2018-09-19T03:23:59.343Z,60.00
2018-09-19T03:26:33.671Z,60.00
2018-09-19T03:29:07.996Z,60.20
2018-09-19T03:31:42.425Z,60.40
2018-09-19T03:34:16.631Z,60.30
2018-09-19T03:36:50.944Z,61.20
2018-09-19T03:39:25.223Z,61.50
2018-09-19T03:41:59.468Z,61.70
2018-09-19T03:44:33.812Z,62.10
2018-09-19T03:47:08.058Z,61.80
2018-09-19T03:49:42.507Z,62.30
2018-09-19T03:52:16.857Z,63.90
2018-09-19T03:54:51.055Z,63.70
2018-09-19T03:57:25.287Z,64.00
2018-09-19T03:59:59.654Z,64.60
2018-09-19T04:02:33.940Z,63.80
2018-09-19T04:05:08.099Z,63.80
2018-09-19T04:07:42.432Z,63.60
2018-09-19T04:10:16.779Z,63.20
2018-09-19T04:12:51.098Z,62.70
2018-09-19T04:15:25.441Z,62.70
2018-09-19T04:17:59.724Z,62.40
2018-09-19T04:20:34.231Z,62.30
2018-09-19T04:23:08.515Z,62.10
2018-09-19T04:25:42.869Z,62.00
2018-09-19T04:28:17.139Z,62.00
2018-09-19T04:30:51.375Z,61.90
2018-09-19T04:33:25.719Z,61.80
2018-09-19T04:35:59.923Z,61.70
2018-09-19T04:38:34.316Z,61.60
2018-09-19T04:41:08.595Z,61.60
2018-09-19T04:43:42.902Z,61.60
2018-09-19T04:46:17.322Z,61.80
2018-09-19T04:48:51.744Z,62.10
2018-09-19T04:51:26.020Z,63.20
2018-09-19T04:54:00.236Z,63.40
2018-09-19T04:56:34.919Z,63.40
2018-09-19T04:59:09.085Z,64.40
2018-09-19T05:01:43.464Z,64.80
2018-09-19T05:04:17.800Z,64.20
2018-09-19T05:06:52.365Z,64.40
2018-09-19T05:09:26.536Z,63.90
2018-09-19T05:12:00.756Z,63.50
2018-09-19T05:14:35.123Z,63.20
2018-09-19T05:17:09.447Z,63.00
2018-09-19T05:19:43.769Z,62.80
2018-09-19T05:22:17.998Z,62.70
2018-09-19T05:24:52.283Z,62.50
2018-09-19T05:27:26.698Z,62.50
2018-09-19T05:30:01.048Z,62.40
2018-09-19T05:32:35.372Z,62.40
2018-09-19T05:35:09.700Z,62.40
2018-09-19T05:37:43.995Z,62.30
2018-09-19T05:40:18.420Z,62.30
2018-09-19T05:42:52.705Z,62.30
2018-09-19T05:45:27.095Z,62.30
2018-09-19T05:48:01.390Z,62.40
2018-09-19T05:50:35.755Z,62.30
2018-09-19T05:53:10.132Z,62.40
2018-09-19T05:55:44.535Z,63.30
2018-09-19T05:58:18.770Z,63.90
2018-09-19T06:00:53.123Z,64.50
2018-09-19T06:03:27.492Z,66.20
2018-09-19T06:06:01.890Z,78.10
2018-09-19T06:08:36.170Z,83.30
2018-09-19T06:11:10.528Z,86.30
2018-09-19T06:13:44.878Z,87.50
2018-09-19T06:16:19.284Z,89.60
2018-09-19T06:18:53.604Z,90.40
2018-09-19T06:21:27.935Z,90.80
2018-09-19T06:24:02.308Z,91.20
2018-09-19T06:26:36.608Z,91.80
2018-09-19T06:29:10.905Z,92.00
2018-09-19T06:31:45.268Z,91.80
2018-09-19T06:34:19.433Z,91.90
2018-09-19T06:36:53.822Z,91.60
2018-09-19T06:39:28.140Z,91.50
2018-09-19T06:42:02.751Z,91.40
2018-09-19T06:44:37.017Z,91.00
2018-09-19T06:47:11.504Z,90.40
2018-09-19T06:49:45.800Z,90.50
2018-09-19T06:52:20.141Z,90.20
2018-09-19T06:54:54.404Z,89.80
2018-09-19T06:57:28.648Z,89.50
2018-09-19T07:00:03.015Z,88.80
2018-09-19T07:02:37.335Z,89.10
2018-09-19T07:05:11.632Z,88.30
2018-09-19T07:07:45.918Z,88.70
2018-09-19T07:10:20.229Z,86.20
2018-09-19T07:12:54.571Z,85.10
2018-09-19T07:15:28.864Z,83.40
2018-09-19T07:18:03.229Z,83.40
2018-09-19T07:20:37.492Z,83.10
2018-09-19T07:23:12.029Z,82.40
2018-09-19T07:25:46.332Z,82.90
2018-09-19T07:28:20.654Z,82.10
2018-09-19T07:30:55.166Z,80.60
2018-09-19T07:33:29.500Z,79.30
2018-09-19T07:36:03.836Z,78.70
2018-09-19T07:38:38.161Z,78.10
2018-09-19T07:41:12.935Z,77.50
2018-09-19T07:43:47.449Z,75.50
2018-09-19T07:46:21.780Z,74.50
2018-09-19T07:48:56.106Z,74.10
2018-09-19T07:51:30.520Z,73.70
2018-09-19T07:54:04.725Z,72.20
2018-09-19T07:56:39.019Z,72.70
2018-09-19T07:59:13.341Z,71.70
2018-09-19T08:01:47.782Z,71.80
2018-09-19T08:04:22.129Z,69.80
2018-09-19T08:06:56.473Z,69.50
2018-09-19T08:09:30.940Z,69.40
2018-09-19T08:12:25.914Z,68.50
2018-09-19T08:15:00.147Z,68.40
2018-09-19T08:17:34.560Z,67.50
2018-09-19T08:20:09.110Z,66.50
2018-09-19T08:22:43.647Z,68.70
2018-09-19T08:25:17.762Z,70.30
2018-09-19T08:27:52.111Z,70.20
2018-09-19T08:30:26.356Z,69.40
2018-09-19T08:33:00.595Z,69.70
2018-09-19T08:35:34.776Z,67.00
2018-09-19T08:38:09.243Z,67.40
2018-09-19T08:40:43.439Z,67.30
2018-09-19T08:43:17.752Z,65.90
2018-09-19T08:45:52.307Z,65.40
2018-09-19T08:48:26.664Z,67.10
2018-09-19T08:51:01.134Z,67.40
2018-09-19T08:53:35.338Z,67.00
2018-09-19T08:56:09.544Z,67.30
2018-09-19T08:58:43.854Z,66.70
2018-09-19T09:01:18.256Z,66.20
2018-09-19T09:03:52.643Z,66.40
2018-09-19T09:06:26.824Z,66.30
2018-09-19T09:09:01.364Z,67.10
2018-09-19T09:11:35.822Z,66.20
2018-09-19T09:14:10.031Z,65.90
2018-09-19T09:16:44.361Z,65.50
2018-09-19T09:19:18.632Z,64.60
2018-09-19T09:21:52.939Z,66.10
2018-09-19T09:24:27.188Z,65.70
2018-09-19T09:27:01.552Z,65.50
2018-09-19T09:29:35.828Z,66.20
2018-09-19T09:32:10.037Z,65.50
2018-09-19T09:34:44.369Z,65.80
2018-09-19T09:37:18.637Z,65.40
2018-09-19T09:39:53.109Z,65.90
2018-09-19T09:42:27.377Z,65.20
2018-09-19T09:45:01.795Z,65.50
2018-09-19T09:47:36.132Z,64.50
2018-09-19T09:50:10.551Z,63.80
2018-09-19T09:52:44.764Z,64.40
2018-09-19T09:55:19.200Z,65.30
2018-09-19T09:57:53.558Z,65.40
2018-09-19T10:00:33.200Z,66.60
2018-09-19T10:03:07.410Z,65.30
2018-09-19T10:05:41.888Z,65.10
2018-09-19T10:08:16.086Z,64.20
2018-09-19T10:10:50.418Z,62.80
2018-09-19T10:13:24.919Z,63.20
2018-09-19T10:15:59.265Z,63.00
2018-09-19T10:18:33.583Z,61.60
2018-09-19T10:21:07.933Z,62.10
2018-09-19T10:23:42.180Z,62.00
2018-09-19T10:26:31.484Z,61.50
2018-09-19T10:29:05.768Z,62.30
2018-09-19T10:31:40.235Z,61.60
2018-09-19T10:34:14.728Z,61.10
2018-09-19T10:36:49.183Z,61.60
2018-09-19T10:39:23.621Z,61.40
2018-09-19T10:41:57.910Z,61.00
2018-09-19T10:44:32.198Z,60.70
2018-09-19T10:47:06.534Z,60.60
2018-09-19T10:49:40.852Z,59.90
2018-09-19T10:52:15.152Z,59.90
2018-09-19T10:54:49.518Z,59.70
2018-09-19T10:57:23.852Z,59.60
2018-09-19T10:59:58.211Z,60.20
2018-09-19T11:02:32.411Z,59.60
2018-09-19T11:05:06.756Z,60.20
2018-09-19T11:07:41.059Z,60.20
2018-09-19T11:10:15.375Z,59.70
2018-09-19T11:12:49.584Z,60.40
2018-09-19T11:15:23.793Z,60.60
2018-09-19T11:20:32.071Z,60.50
2018-09-19T11:23:06.343Z,60.80
2018-09-19T11:25:40.760Z,60.80
2018-09-19T11:28:15.116Z,60.90
2018-09-19T11:30:49.364Z,60.70
2018-09-19T11:33:23.624Z,60.20
2018-09-19T11:35:58.080Z,61.00
2018-09-19T11:38:32.468Z,61.10
2018-09-19T11:41:06.856Z,61.60
2018-09-19T11:43:41.144Z,60.60
2018-09-19T11:46:15.572Z,61.00
2018-09-19T11:48:50.002Z,62.20
2018-09-19T11:51:24.308Z,61.80
2018-09-19T11:53:58.544Z,62.00
2018-09-19T11:56:32.792Z,61.40
2018-09-19T11:59:07.055Z,61.70
2018-09-19T12:01:41.396Z,61.50
2018-09-19T12:04:15.671Z,61.80
2018-09-19T12:06:49.897Z,62.10
2018-09-19T12:09:24.204Z,61.70
2018-09-19T12:11:58.717Z,61.60
2018-09-19T12:14:32.959Z,61.30
2018-09-19T12:17:07.280Z,61.70
2018-09-19T12:19:41.528Z,62.20
2018-09-19T12:22:15.711Z,62.80
2018-09-19T12:24:49.934Z,61.80
2018-09-19T12:27:24.236Z,62.00
2018-09-19T12:29:58.591Z,61.70
2018-09-19T12:32:32.732Z,61.40
2018-09-19T12:35:07.026Z,62.90
2018-09-19T12:37:41.356Z,62.20
2018-09-19T12:40:15.643Z,62.10
2018-09-19T12:42:49.846Z,61.30
2018-09-19T12:45:24.125Z,62.00
2018-09-19T12:47:58.452Z,63.30
2018-09-19T12:50:32.784Z,62.80
2018-09-19T12:53:07.120Z,62.70
2018-09-19T12:55:41.516Z,62.30
2018-09-19T12:58:15.784Z,62.80
2018-09-19T13:00:50.864Z,62.10
2018-09-19T13:03:25.048Z,61.90
2018-09-19T13:05:59.284Z,61.90
2018-09-19T13:08:33.637Z,61.60
2018-09-19T13:11:09.152Z,60.80
2018-09-19T13:13:43.416Z,60.20
2018-09-19T13:16:17.637Z,60.20
2018-09-19T13:18:52.018Z,60.50
2018-09-19T13:21:26.319Z,60.00
2018-09-19T13:24:00.549Z,60.30
2018-09-19T13:26:34.864Z,59.70
2018-09-19T13:29:09.428Z,59.90
2018-09-19T13:31:43.632Z,59.30
2018-09-19T13:34:17.869Z,59.10
2018-09-19T13:36:52.266Z,58.70
2018-09-19T13:39:26.459Z,57.70
2018-09-19T13:42:00.756Z,57.90
2018-09-19T13:44:35.272Z,58.30
2018-09-19T13:47:09.515Z,58.10
2018-09-19T13:49:48.196Z,57.50
2018-09-19T13:52:22.424Z,57.30
2018-09-19T13:54:56.796Z,57.60
2018-09-19T13:57:31.092Z,57.00
2018-09-19T14:00:05.428Z,57.20
2018-09-19T14:02:39.721Z,56.60
2018-09-19T14:05:14.096Z,56.90
2018-09-19T14:07:48.296Z,56.20
2018-09-19T14:10:22.808Z,56.00
2018-09-19T14:12:57.020Z,55.40
2018-09-19T14:15:31.329Z,55.30
2018-09-19T14:18:05.957Z,56.00
2018-09-19T14:20:40.117Z,56.20
2018-09-19T14:23:14.319Z,56.70
2018-09-19T14:25:48.513Z,56.60
2018-09-19T14:28:22.897Z,56.70
2018-09-19T14:30:57.104Z,56.60
2018-09-19T14:33:31.386Z,56.70
2018-09-19T14:36:05.796Z,56.00
2018-09-19T14:38:40.091Z,55.80
2018-09-19T14:41:14.545Z,56.00
2018-09-19T14:43:48.747Z,56.30
2018-09-19T14:46:23.073Z,56.50
2018-09-19T14:48:57.354Z,56.70
2018-09-19T14:51:31.776Z,56.50
2018-09-19T14:54:06.312Z,55.80
2018-09-19T14:56:40.703Z,56.20
2018-09-19T14:59:15.032Z,56.60
2018-09-19T15:01:49.444Z,56.70
2018-09-19T15:04:23.785Z,55.90
2018-09-19T15:06:58.008Z,56.10
2018-09-19T15:09:32.392Z,55.70
2018-09-19T15:12:06.740Z,55.90
2018-09-19T15:14:41.045Z,56.00
2018-09-19T15:17:15.264Z,56.50
2018-09-19T15:19:49.623Z,56.50
2018-09-19T15:22:24.031Z,56.30
2018-09-19T15:24:58.304Z,56.30
2018-09-19T15:27:32.652Z,56.00
2018-09-19T15:30:28.660Z,56.40
2018-09-19T15:33:02.844Z,55.60
2018-09-19T15:38:36.581Z,55.60
2018-09-19T15:41:10.883Z,55.00
2018-09-19T15:43:45.037Z,54.80
2018-09-19T15:46:20.048Z,54.40
2018-09-19T15:48:54.373Z,54.80
2018-09-19T15:51:28.803Z,54.70
2018-09-19T15:54:03.335Z,55.00
2018-09-19T15:56:37.620Z,55.50
2018-09-19T15:59:12.104Z,55.70
2018-09-19T16:01:46.295Z,55.50
2018-09-19T16:04:20.500Z,55.60
2018-09-19T16:06:54.876Z,55.40
2018-09-19T16:09:29.219Z,55.20
2018-09-19T16:12:03.438Z,55.10
2018-09-19T16:14:37.616Z,55.30
2018-09-19T16:17:11.928Z,55.20
2018-09-19T16:19:46.200Z,55.70
2018-09-19T16:22:20.592Z,55.90
2018-09-19T16:24:54.780Z,55.50
2018-09-19T16:27:29.128Z,55.10
2018-09-19T16:30:03.467Z,55.00
2018-09-19T16:32:38.272Z,55.40
2018-09-19T16:35:12.468Z,55.30
2018-09-19T16:37:46.780Z,55.60
2018-09-19T16:40:21.152Z,55.20
2018-09-19T16:42:55.416Z,55.70
2018-09-19T16:45:29.787Z,55.50
2018-09-19T16:48:03.970Z,56.10
2018-09-19T16:50:38.260Z,55.70
2018-09-19T16:53:12.557Z,55.60
2018-09-19T16:55:46.896Z,55.00
2018-09-19T16:58:21.184Z,55.70
2018-09-19T17:00:55.428Z,55.30
2018-09-19T17:03:29.616Z,56.00
2018-09-19T17:06:04.044Z,55.40
2018-09-19T17:08:38.400Z,55.50
2018-09-19T17:11:12.726Z,56.30
2018-09-19T17:13:47.059Z,56.40
2018-09-19T17:16:21.313Z,56.10
2018-09-19T17:18:55.675Z,56.80
2018-09-19T17:21:30.000Z,56.00
2018-09-19T17:24:04.413Z,56.40
2018-09-19T17:26:38.720Z,56.50
2018-09-19T17:29:12.965Z,57.10
2018-09-19T17:31:47.320Z,56.60
2018-09-19T17:34:21.616Z,56.90
2018-09-19T17:36:55.876Z,57.40
2018-09-19T17:39:30.083Z,57.00
2018-09-19T17:42:04.268Z,56.90
2018-09-19T17:44:38.676Z,57.50
2018-09-19T17:47:13.068Z,57.20
2018-09-19T17:49:47.469Z,57.50
2018-09-19T17:52:21.671Z,57.60
2018-09-19T17:54:56.001Z,57.30
2018-09-19T17:57:30.288Z,57.80
2018-09-19T18:00:05.844Z,57.00
2018-09-19T18:02:40.656Z,58.10
2018-09-19T18:05:15.069Z,57.80
2018-09-19T18:07:49.283Z,57.80
2018-09-19T18:10:23.648Z,57.70
2018-09-19T18:12:57.952Z,57.60
2018-09-19T18:15:32.399Z,57.50
2018-09-19T18:18:06.792Z,57.30
2018-09-19T18:20:41.096Z,57.30
2018-09-19T18:23:15.437Z,57.80
2018-09-19T18:25:49.740Z,57.50
2018-09-19T18:28:24.061Z,57.50
2018-09-19T18:30:58.451Z,57.80
2018-09-19T18:33:32.756Z,57.90
2018-09-19T18:36:07.573Z,57.60
2018-09-19T18:38:41.928Z,57.30
2018-09-19T18:41:16.352Z,56.90
2018-09-19T18:43:50.740Z,56.80
2018-09-19T18:46:25.128Z,57.40
2018-09-19T18:48:59.304Z,57.20
2018-09-19T18:51:33.743Z,57.50
2018-09-19T18:54:08.211Z,57.90
2018-09-19T18:56:42.505Z,58.00
2018-09-19T18:59:16.727Z,58.20
2018-09-19T19:01:51.098Z,57.10
2018-09-19T19:04:25.250Z,57.10
2018-09-19T19:06:59.583Z,57.90
2018-09-19T19:09:33.967Z,57.40
2018-09-19T19:12:08.274Z,57.30
2018-09-19T19:14:42.602Z,57.70
2018-09-19T19:17:16.839Z,58.50
2018-09-19T19:19:51.180Z,57.90
2018-09-19T19:22:25.489Z,58.00
2018-09-19T19:24:59.876Z,58.30
2018-09-19T19:27:34.331Z,58.00
2018-09-19T19:30:08.806Z,58.80
2018-09-19T19:32:43.052Z,58.60
2018-09-19T19:35:17.456Z,58.60
2018-09-19T19:37:51.799Z,58.60
2018-09-19T19:40:26.007Z,58.70
2018-09-19T19:43:00.323Z,58.60
2018-09-19T19:45:34.644Z,58.70
2018-09-19T19:48:08.945Z,58.40
2018-09-19T19:50:43.252Z,58.30
2018-09-19T19:53:17.554Z,58.90
2018-09-19T19:55:51.952Z,59.30
2018-09-19T19:58:26.318Z,59.10
2018-09-19T20:01:00.699Z,59.30
2018-09-19T20:03:34.993Z,59.50
2018-09-19T20:06:09.393Z,59.10
2018-09-19T20:08:43.800Z,58.60
2018-09-19T20:11:18.038Z,59.50
2018-09-19T20:13:52.300Z,59.30
2018-09-19T20:16:26.560Z,58.80
2018-09-19T20:19:00.816Z,59.50
2018-09-19T20:21:35.036Z,59.20
2018-09-19T20:24:09.336Z,59.50
2018-09-19T20:26:43.673Z,59.30
2018-09-19T20:29:17.868Z,59.60
2018-09-19T20:31:52.229Z,59.50
2018-09-19T20:34:26.568Z,59.40
2018-09-19T20:37:00.906Z,59.60
2018-09-19T20:39:35.244Z,59.60
2018-09-19T20:42:09.528Z,59.60
2018-09-19T20:44:43.791Z,59.70
2018-09-19T20:47:17.996Z,59.70
2018-09-19T20:49:52.184Z,59.80
2018-09-19T20:52:26.396Z,59.80
2018-09-19T20:55:00.719Z,59.60
2018-09-19T20:57:34.959Z,59.80
2018-09-19T21:00:09.307Z,57.80
2018-09-19T21:02:43.704Z,59.90
2018-09-19T21:05:17.947Z,60.00
2018-09-19T21:07:52.368Z,60.00
2018-09-19T21:10:26.655Z,60.20
2018-09-19T21:13:00.836Z,60.20
2018-09-19T21:15:35.224Z,58.30
2018-09-19T21:18:09.516Z,59.60
2018-09-19T21:20:43.904Z,58.30
2018-09-19T21:23:18.240Z,60.30
2018-09-19T21:25:52.508Z,60.60
2018-09-19T21:28:26.689Z,60.30
2018-09-19T21:31:01.280Z,60.30
2018-09-19T21:33:35.512Z,60.40
2018-09-19T21:36:09.692Z,59.20
2018-09-19T21:38:43.912Z,60.70
2018-09-19T21:41:18.236Z,60.40
2018-09-19T21:43:52.545Z,59.70
2018-09-19T21:46:26.888Z,60.80
2018-09-19T21:49:01.293Z,60.90
2018-09-19T21:51:35.572Z,60.40
2018-09-19T21:54:09.773Z,61.00
2018-09-19T21:56:44.056Z,60.70
2018-09-19T21:59:18.391Z,60.70
2018-09-19T22:01:57.901Z,61.30
2018-09-19T22:04:32.116Z,61.00
2018-09-19T22:07:06.439Z,58.50
2018-09-19T22:09:40.772Z,61.30
2018-09-19T22:12:15.127Z,61.00
2018-09-19T22:14:49.345Z,60.80
2018-09-19T22:17:23.747Z,60.90
2018-09-19T22:19:57.970Z,60.90
2018-09-19T22:22:32.256Z,59.10
2018-09-19T22:25:06.854Z,61.70
2018-09-19T22:27:41.291Z,61.30
2018-09-19T22:30:15.608Z,61.60
2018-09-19T22:32:49.936Z,61.50
2018-09-19T22:35:24.279Z,61.50
2018-09-19T22:37:58.568Z,61.40
2018-09-19T22:40:32.937Z,59.20
2018-09-19T22:43:07.252Z,61.20
2018-09-19T22:45:41.628Z,61.50
2018-09-19T22:48:15.928Z,61.60
2018-09-19T22:50:50.140Z,61.50
2018-09-19T22:53:24.469Z,61.00
2018-09-19T22:55:58.616Z,60.70
2018-09-19T22:58:32.924Z,60.50
2018-09-19T23:01:07.404Z,59.70
2018-09-19T23:03:41.839Z,60.40
2018-09-19T23:06:16.183Z,62.20
2018-09-19T23:08:50.511Z,61.80
2018-09-19T23:11:24.972Z,61.60
2018-09-19T23:13:59.296Z,60.90
2018-09-19T23:16:33.560Z,61.80
2018-09-19T23:19:07.696Z,61.80
2018-09-19T23:21:42.067Z,61.70
2018-09-19T23:24:16.377Z,61.90
2018-09-19T23:26:50.700Z,61.50
2018-09-19T23:29:24.851Z,61.80
2018-09-19T23:31:59.315Z,60.90
2018-09-19T23:34:33.568Z,59.30
2018-09-19T23:37:07.840Z,61.20
2018-09-19T23:39:42.111Z,62.80
2018-09-19T23:42:16.317Z,62.40
2018-09-19T23:44:50.625Z,60.90
2018-09-19T23:47:25.039Z,61.70
2018-09-19T23:49:59.448Z,62.40
2018-09-19T23:52:33.632Z,60.20
2018-09-19T23:55:07.938Z,63.80
2018-09-19T23:57:42.308Z,63.00
